sensor_id;sensor_type;location;lat;lon;timestamp;P1;durP1;ratioP1;P2;durP2;ratioP2
9304;SDS011;4690;52.422;13.486;2022-12-18T00:06:17;42.63;;;24.73;;
9304;SDS011;4690;52.422;13.486;2022-12-18T00:08:45;45.30;;;23.30;;
9304;SDS011;4690;52.422;13.486;2022-12-18T00:11:13;39.60;;;22.93;;
9304;SDS011;4690;52.422;13.486;2022-12-18T00:13:46;44.80;;;23.93;;
9304;SDS011;4690;52.422;13.486;2022-12-18T00:16:17;39.47;;;23.43;;
9304;SDS011;4690;52.422;13.486;2022-12-18T00:18:46;48.47;;;25.30;;
9304;SDS011;4690;52.422;13.486;2022-12-18T00:21:18;38.40;;;21.77;;
9304;SDS011;4690;52.422;13.486;2022-12-18T00:23:45;57.83;;;22.40;;
9304;SDS011;4690;52.422;13.486;2022-12-18T00:26:14;40.80;;;21.23;;
9304;SDS011;4690;52.422;13.486;2022-12-18T00:28:52;45.20;;;22.57;;
9304;SDS011;4690;52.422;13.486;2022-12-18T00:31:21;38.47;;;21.43;;
9304;SDS011;4690;52.422;13.486;2022-12-18T00:33:49;38.93;;;22.20;;
9304;SDS011;4690;52.422;13.486;2022-12-18T00:36:16;39.70;;;22.90;;
9304;SDS011;4690;52.422;13.486;2022-12-18T00:38:45;42.73;;;23.83;;
9304;SDS011;4690;52.422;13.486;2022-12-18T00:41:13;42.93;;;23.17;;
9304;SDS011;4690;52.422;13.486;2022-12-18T00:44:04;48.37;;;24.03;;
9304;SDS011;4690;52.422;13.486;2022-12-18T00:46:31;43.03;;;25.53;;
9304;SDS011;4690;52.422;13.486;2022-12-18T00:48:57;51.83;;;26.63;;
9304;SDS011;4690;52.422;13.486;2022-12-18T00:51:23;68.43;;;27.70;;
9304;SDS011;4690;52.422;13.486;2022-12-18T00:53:49;76.90;;;28.70;;
9304;SDS011;4690;52.422;13.486;2022-12-18T00:56:16;52.73;;;28.43;;
9304;SDS011;4690;52.422;13.486;2022-12-18T00:58:42;51.23;;;28.50;;
9304;SDS011;4690;52.422;13.486;2022-12-18T01:01:08;61.70;;;31.50;;
9304;SDS011;4690;52.422;13.486;2022-12-18T01:03:34;53.37;;;30.17;;
9304;SDS011;4690;52.422;13.486;2022-12-18T01:06:04;61.53;;;31.77;;
9304;SDS011;4690;52.422;13.486;2022-12-18T01:08:35;56.97;;;30.07;;
9304;SDS011;4690;52.422;13.486;2022-12-18T01:11:09;60.53;;;32.27;;
9304;SDS011;4690;52.422;13.486;2022-12-18T01:13:42;67.17;;;35.67;;
9304;SDS011;4690;52.422;13.486;2022-12-18T01:16:08;64.13;;;34.57;;
9304;SDS011;4690;52.422;13.486;2022-12-18T01:18:37;72.57;;;36.40;;
9304;SDS011;4690;52.422;13.486;2022-12-18T01:21:10;66.13;;;35.00;;
9304;SDS011;4690;52.422;13.486;2022-12-18T01:23:40;70.90;;;36.93;;
9304;SDS011;4690;52.422;13.486;2022-12-18T01:26:10;76.20;;;38.70;;
9304;SDS011;4690;52.422;13.486;2022-12-18T01:28:39;68.50;;;37.10;;
9304;SDS011;4690;52.422;13.486;2022-12-18T01:31:10;74.63;;;35.87;;
9304;SDS011;4690;52.422;13.486;2022-12-18T01:33:44;66.67;;;34.33;;
9304;SDS011;4690;52.422;13.486;2022-12-18T01:36:15;67.53;;;34.03;;
9304;SDS011;4690;52.422;13.486;2022-12-18T01:38:42;61.40;;;33.00;;
9304;SDS011;4690;52.422;13.486;2022-12-18T01:41:09;63.27;;;32.63;;
9304;SDS011;4690;52.422;13.486;2022-12-18T01:46:20;59.03;;;30.77;;
9304;SDS011;4690;52.422;13.486;2022-12-18T01:48:55;55.70;;;29.10;;
9304;SDS011;4690;52.422;13.486;2022-12-18T01:51:27;53.27;;;29.57;;
9304;SDS011;4690;52.422;13.486;2022-12-18T01:53:55;51.40;;;29.53;;
9304;SDS011;4690;52.422;13.486;2022-12-18T01:56:22;52.67;;;29.07;;
9304;SDS011;4690;52.422;13.486;2022-12-18T01:58:50;52.17;;;28.80;;
9304;SDS011;4690;52.422;13.486;2022-12-18T02:01:28;54.63;;;28.50;;
9304;SDS011;4690;52.422;13.486;2022-12-18T02:04:13;50.13;;;27.93;;
9304;SDS011;4690;52.422;13.486;2022-12-18T02:09:43;50.87;;;27.03;;
9304;SDS011;4690;52.422;13.486;2022-12-18T02:12:18;69.20;;;29.07;;
9304;SDS011;4690;52.422;13.486;2022-12-18T02:17:33;43.80;;;24.57;;
9304;SDS011;4690;52.422;13.486;2022-12-18T02:20:34;47.17;;;25.57;;
9304;SDS011;4690;52.422;13.486;2022-12-18T02:29:03;43.43;;;24.20;;
9304;SDS011;4690;52.422;13.486;2022-12-18T02:31:40;47.40;;;25.03;;
9304;SDS011;4690;52.422;13.486;2022-12-18T02:34:14;47.97;;;25.93;;
9304;SDS011;4690;52.422;13.486;2022-12-18T02:36:43;43.53;;;26.50;;
9304;SDS011;4690;52.422;13.486;2022-12-18T02:39:11;45.27;;;24.40;;
9304;SDS011;4690;52.422;13.486;2022-12-18T02:41:40;43.80;;;24.20;;
9304;SDS011;4690;52.422;13.486;2022-12-18T02:44:07;42.93;;;24.00;;
9304;SDS011;4690;52.422;13.486;2022-12-18T02:46:37;44.33;;;25.07;;
9304;SDS011;4690;52.422;13.486;2022-12-18T02:58:15;43.30;;;24.07;;
9304;SDS011;4690;52.422;13.486;2022-12-18T03:04:02;46.67;;;24.53;;
9304;SDS011;4690;52.422;13.486;2022-12-18T03:06:57;44.37;;;23.60;;
9304;SDS011;4690;52.422;13.486;2022-12-18T03:09:38;46.93;;;24.87;;
9304;SDS011;4690;52.422;13.486;2022-12-18T03:12:18;44.13;;;24.17;;
9304;SDS011;4690;52.422;13.486;2022-12-18T03:15:03;48.20;;;24.67;;
9304;SDS011;4690;52.422;13.486;2022-12-18T03:17:35;44.87;;;24.20;;
9304;SDS011;4690;52.422;13.486;2022-12-18T03:20:08;44.83;;;24.43;;
9304;SDS011;4690;52.422;13.486;2022-12-18T03:22:44;44.80;;;24.07;;
9304;SDS011;4690;52.422;13.486;2022-12-18T03:25:15;46.87;;;24.80;;
9304;SDS011;4690;52.422;13.486;2022-12-18T03:27:46;42.33;;;23.17;;
9304;SDS011;4690;52.422;13.486;2022-12-18T03:30:18;42.40;;;24.03;;
9304;SDS011;4690;52.422;13.486;2022-12-18T03:32:47;43.53;;;24.37;;
9304;SDS011;4690;52.422;13.486;2022-12-18T03:35:26;52.20;;;26.10;;
9304;SDS011;4690;52.422;13.486;2022-12-18T03:38:00;41.80;;;23.30;;
9304;SDS011;4690;52.422;13.486;2022-12-18T03:40:31;44.00;;;23.77;;
9304;SDS011;4690;52.422;13.486;2022-12-18T03:43:26;45.73;;;24.27;;
9304;SDS011;4690;52.422;13.486;2022-12-18T03:47:04;42.03;;;23.10;;
9304;SDS011;4690;52.422;13.486;2022-12-18T03:49:37;42.67;;;23.30;;
9304;SDS011;4690;52.422;13.486;2022-12-18T03:52:36;43.33;;;22.53;;
9304;SDS011;4690;52.422;13.486;2022-12-18T03:55:26;40.90;;;23.10;;
9304;SDS011;4690;52.422;13.486;2022-12-18T03:57:58;44.37;;;24.37;;
9304;SDS011;4690;52.422;13.486;2022-12-18T04:00:28;44.30;;;23.37;;
9304;SDS011;4690;52.422;13.486;2022-12-18T04:02:56;41.83;;;22.63;;
9304;SDS011;4690;52.422;13.486;2022-12-18T04:05:25;42.30;;;23.87;;
9304;SDS011;4690;52.422;13.486;2022-12-18T04:07:55;37.20;;;22.00;;
9304;SDS011;4690;52.422;13.486;2022-12-18T04:10:22;41.67;;;22.87;;
9304;SDS011;4690;52.422;13.486;2022-12-18T04:12:47;48.30;;;23.07;;
9304;SDS011;4690;52.422;13.486;2022-12-18T04:15:13;46.70;;;23.87;;
9304;SDS011;4690;52.422;13.486;2022-12-18T04:17:42;44.57;;;23.00;;
9304;SDS011;4690;52.422;13.486;2022-12-18T04:20:15;48.47;;;24.33;;
9304;SDS011;4690;52.422;13.486;2022-12-18T04:22:42;48.17;;;24.23;;
9304;SDS011;4690;52.422;13.486;2022-12-18T04:25:11;44.87;;;23.27;;
9304;SDS011;4690;52.422;13.486;2022-12-18T04:27:37;48.77;;;23.33;;
9304;SDS011;4690;52.422;13.486;2022-12-18T04:30:03;46.53;;;23.03;;
9304;SDS011;4690;52.422;13.486;2022-12-18T04:32:29;47.57;;;24.70;;
9304;SDS011;4690;52.422;13.486;2022-12-18T04:34:55;48.37;;;24.70;;
9304;SDS011;4690;52.422;13.486;2022-12-18T04:37:21;48.03;;;24.07;;
9304;SDS011;4690;52.422;13.486;2022-12-18T04:39:47;53.50;;;25.00;;
9304;SDS011;4690;52.422;13.486;2022-12-18T04:42:12;54.27;;;25.33;;
9304;SDS011;4690;52.422;13.486;2022-12-18T04:44:38;53.47;;;25.90;;
9304;SDS011;4690;52.422;13.486;2022-12-18T04:47:04;54.57;;;26.60;;
9304;SDS011;4690;52.422;13.486;2022-12-18T04:49:29;51.70;;;25.27;;
9304;SDS011;4690;52.422;13.486;2022-12-18T04:51:55;58.60;;;27.43;;
9304;SDS011;4690;52.422;13.486;2022-12-18T04:54:21;55.23;;;27.43;;
9304;SDS011;4690;52.422;13.486;2022-12-18T04:56:47;60.03;;;27.60;;
9304;SDS011;4690;52.422;13.486;2022-12-18T04:59:12;64.63;;;28.90;;
9304;SDS011;4690;52.422;13.486;2022-12-18T05:01:38;59.40;;;28.60;;
9304;SDS011;4690;52.422;13.486;2022-12-18T05:04:04;67.30;;;29.53;;
9304;SDS011;4690;52.422;13.486;2022-12-18T05:06:30;62.23;;;28.97;;
9304;SDS011;4690;52.422;13.486;2022-12-18T05:08:56;64.17;;;29.90;;
9304;SDS011;4690;52.422;13.486;2022-12-18T05:11:22;70.60;;;32.13;;
9304;SDS011;4690;52.422;13.486;2022-12-18T05:13:47;66.90;;;30.63;;
9304;SDS011;4690;52.422;13.486;2022-12-18T05:16:14;65.37;;;31.50;;
9304;SDS011;4690;52.422;13.486;2022-12-18T05:18:40;66.23;;;31.20;;
9304;SDS011;4690;52.422;13.486;2022-12-18T05:21:06;67.70;;;31.90;;
9304;SDS011;4690;52.422;13.486;2022-12-18T05:23:35;64.90;;;32.03;;
9304;SDS011;4690;52.422;13.486;2022-12-18T05:26:03;63.70;;;30.77;;
9304;SDS011;4690;52.422;13.486;2022-12-18T05:28:32;65.30;;;31.20;;
9304;SDS011;4690;52.422;13.486;2022-12-18T05:31:00;67.27;;;32.70;;
9304;SDS011;4690;52.422;13.486;2022-12-18T05:33:29;65.93;;;30.43;;
9304;SDS011;4690;52.422;13.486;2022-12-18T05:35:58;60.87;;;29.77;;
9304;SDS011;4690;52.422;13.486;2022-12-18T05:38:29;63.00;;;31.77;;
9304;SDS011;4690;52.422;13.486;2022-12-18T05:40:56;61.70;;;30.00;;
9304;SDS011;4690;52.422;13.486;2022-12-18T05:43:23;59.63;;;29.57;;
9304;SDS011;4690;52.422;13.486;2022-12-18T05:45:51;57.67;;;29.90;;
9304;SDS011;4690;52.422;13.486;2022-12-18T05:48:18;58.10;;;30.03;;
9304;SDS011;4690;52.422;13.486;2022-12-18T05:50:45;60.00;;;29.80;;
9304;SDS011;4690;52.422;13.486;2022-12-18T05:53:13;53.73;;;28.50;;
9304;SDS011;4690;52.422;13.486;2022-12-18T05:55:42;49.00;;;27.07;;
9304;SDS011;4690;52.422;13.486;2022-12-18T05:58:10;52.93;;;27.07;;
9304;SDS011;4690;52.422;13.486;2022-12-18T06:00:38;50.80;;;26.60;;
9304;SDS011;4690;52.422;13.486;2022-12-18T06:03:07;56.37;;;28.60;;
9304;SDS011;4690;52.422;13.486;2022-12-18T06:05:35;52.77;;;27.83;;
9304;SDS011;4690;52.422;13.486;2022-12-18T06:08:03;50.90;;;27.47;;
9304;SDS011;4690;52.422;13.486;2022-12-18T06:10:30;58.60;;;29.13;;
9304;SDS011;4690;52.422;13.486;2022-12-18T06:12:55;56.23;;;29.00;;
9304;SDS011;4690;52.422;13.486;2022-12-18T06:15:21;56.83;;;29.57;;
9304;SDS011;4690;52.422;13.486;2022-12-18T06:17:47;54.33;;;28.30;;
9304;SDS011;4690;52.422;13.486;2022-12-18T06:20:13;53.93;;;28.70;;
9304;SDS011;4690;52.422;13.486;2022-12-18T06:22:39;55.70;;;28.67;;
9304;SDS011;4690;52.422;13.486;2022-12-18T06:25:05;55.90;;;28.77;;
9304;SDS011;4690;52.422;13.486;2022-12-18T06:27:31;54.23;;;28.57;;
9304;SDS011;4690;52.422;13.486;2022-12-18T06:29:58;54.17;;;28.17;;
9304;SDS011;4690;52.422;13.486;2022-12-18T06:32:27;57.33;;;29.00;;
9304;SDS011;4690;52.422;13.486;2022-12-18T06:34:53;50.87;;;27.03;;
9304;SDS011;4690;52.422;13.486;2022-12-18T06:37:20;50.87;;;26.60;;
9304;SDS011;4690;52.422;13.486;2022-12-18T06:39:47;51.67;;;26.70;;
9304;SDS011;4690;52.422;13.486;2022-12-18T06:42:12;52.17;;;29.27;;
9304;SDS011;4690;52.422;13.486;2022-12-18T06:44:38;57.87;;;28.87;;
9304;SDS011;4690;52.422;13.486;2022-12-18T06:47:04;56.10;;;28.03;;
9304;SDS011;4690;52.422;13.486;2022-12-18T06:49:29;54.03;;;27.77;;
9304;SDS011;4690;52.422;13.486;2022-12-18T06:51:55;52.77;;;27.30;;
9304;SDS011;4690;52.422;13.486;2022-12-18T06:54:21;52.73;;;26.60;;
9304;SDS011;4690;52.422;13.486;2022-12-18T06:56:47;54.67;;;26.60;;
9304;SDS011;4690;52.422;13.486;2022-12-18T06:59:13;57.97;;;28.80;;
9304;SDS011;4690;52.422;13.486;2022-12-18T07:01:39;56.83;;;28.93;;
9304;SDS011;4690;52.422;13.486;2022-12-18T07:04:06;56.37;;;28.37;;
9304;SDS011;4690;52.422;13.486;2022-12-18T07:06:31;54.10;;;28.07;;
9304;SDS011;4690;52.422;13.486;2022-12-18T07:08:57;55.63;;;27.57;;
9304;SDS011;4690;52.422;13.486;2022-12-18T07:11:23;57.30;;;26.90;;
9304;SDS011;4690;52.422;13.486;2022-12-18T07:13:49;55.80;;;28.13;;
9304;SDS011;4690;52.422;13.486;2022-12-18T07:16:18;51.50;;;26.70;;
9304;SDS011;4690;52.422;13.486;2022-12-18T07:18:45;50.57;;;26.13;;
9304;SDS011;4690;52.422;13.486;2022-12-18T07:21:15;55.67;;;28.60;;
9304;SDS011;4690;52.422;13.486;2022-12-18T07:23:44;55.53;;;28.53;;
9304;SDS011;4690;52.422;13.486;2022-12-18T07:26:13;61.10;;;29.50;;
9304;SDS011;4690;52.422;13.486;2022-12-18T07:28:41;58.57;;;29.07;;
9304;SDS011;4690;52.422;13.486;2022-12-18T07:31:09;54.80;;;28.73;;
9304;SDS011;4690;52.422;13.486;2022-12-18T07:33:38;56.13;;;28.40;;
9304;SDS011;4690;52.422;13.486;2022-12-18T07:36:04;55.47;;;28.53;;
9304;SDS011;4690;52.422;13.486;2022-12-18T07:38:33;53.10;;;27.70;;
9304;SDS011;4690;52.422;13.486;2022-12-18T07:41:00;55.60;;;28.47;;
9304;SDS011;4690;52.422;13.486;2022-12-18T07:43:31;53.60;;;26.90;;
9304;SDS011;4690;52.422;13.486;2022-12-18T07:45:58;50.07;;;26.90;;
9304;SDS011;4690;52.422;13.486;2022-12-18T07:48:24;50.47;;;27.20;;
9304;SDS011;4690;52.422;13.486;2022-12-18T07:50:50;45.53;;;24.53;;
9304;SDS011;4690;52.422;13.486;2022-12-18T07:53:16;52.87;;;29.57;;
9304;SDS011;4690;52.422;13.486;2022-12-18T07:55:42;56.90;;;32.57;;
9304;SDS011;4690;52.422;13.486;2022-12-18T07:58:08;54.73;;;32.33;;
9304;SDS011;4690;52.422;13.486;2022-12-18T08:00:33;47.57;;;27.20;;
9304;SDS011;4690;52.422;13.486;2022-12-18T08:03:00;43.13;;;25.03;;
9304;SDS011;4690;52.422;13.486;2022-12-18T08:05:26;50.83;;;31.40;;
9304;SDS011;4690;52.422;13.486;2022-12-18T08:07:53;48.87;;;27.27;;
9304;SDS011;4690;52.422;13.486;2022-12-18T08:10:19;48.00;;;26.07;;
9304;SDS011;4690;52.422;13.486;2022-12-18T08:12:48;46.13;;;25.40;;
9304;SDS011;4690;52.422;13.486;2022-12-18T08:15:15;42.57;;;23.20;;
9304;SDS011;4690;52.422;13.486;2022-12-18T08:17:42;39.73;;;22.20;;
9304;SDS011;4690;52.422;13.486;2022-12-18T08:20:07;39.57;;;22.47;;
9304;SDS011;4690;52.422;13.486;2022-12-18T08:22:34;43.40;;;22.97;;
9304;SDS011;4690;52.422;13.486;2022-12-18T08:25:04;43.27;;;24.73;;
9304;SDS011;4690;52.422;13.486;2022-12-18T08:27:30;41.30;;;24.27;;
9304;SDS011;4690;52.422;13.486;2022-12-18T08:29:56;42.10;;;23.83;;
9304;SDS011;4690;52.422;13.486;2022-12-18T08:32:23;46.03;;;26.03;;
9304;SDS011;4690;52.422;13.486;2022-12-18T08:34:51;42.90;;;25.40;;
9304;SDS011;4690;52.422;13.486;2022-12-18T08:37:16;41.57;;;23.37;;
9304;SDS011;4690;52.422;13.486;2022-12-18T08:39:42;38.60;;;22.37;;
9304;SDS011;4690;52.422;13.486;2022-12-18T08:42:08;40.87;;;23.93;;
9304;SDS011;4690;52.422;13.486;2022-12-18T08:44:52;39.33;;;21.73;;
9304;SDS011;4690;52.422;13.486;2022-12-18T08:47:18;40.77;;;23.40;;
9304;SDS011;4690;52.422;13.486;2022-12-18T08:49:44;37.97;;;22.47;;
9304;SDS011;4690;52.422;13.486;2022-12-18T08:52:09;39.23;;;22.20;;
9304;SDS011;4690;52.422;13.486;2022-12-18T08:54:36;39.87;;;22.70;;
9304;SDS011;4690;52.422;13.486;2022-12-18T08:57:01;38.87;;;23.47;;
9304;SDS011;4690;52.422;13.486;2022-12-18T08:59:27;39.03;;;21.77;;
9304;SDS011;4690;52.422;13.486;2022-12-18T09:01:53;45.33;;;22.87;;
9304;SDS011;4690;52.422;13.486;2022-12-18T09:04:20;42.00;;;23.93;;
9304;SDS011;4690;52.422;13.486;2022-12-18T09:06:46;42.93;;;22.97;;
9304;SDS011;4690;52.422;13.486;2022-12-18T09:09:12;47.50;;;25.17;;
9304;SDS011;4690;52.422;13.486;2022-12-18T09:11:38;43.77;;;23.43;;
9304;SDS011;4690;52.422;13.486;2022-12-18T09:14:04;45.47;;;24.53;;
9304;SDS011;4690;52.422;13.486;2022-12-18T09:16:30;46.73;;;23.93;;
9304;SDS011;4690;52.422;13.486;2022-12-18T09:18:57;51.30;;;26.07;;
9304;SDS011;4690;52.422;13.486;2022-12-18T09:21:28;51.10;;;26.77;;
9304;SDS011;4690;52.422;13.486;2022-12-18T09:23:56;45.40;;;24.47;;
9304;SDS011;4690;52.422;13.486;2022-12-18T09:26:23;50.40;;;26.13;;
9304;SDS011;4690;52.422;13.486;2022-12-18T09:28:50;48.93;;;24.83;;
9304;SDS011;4690;52.422;13.486;2022-12-18T09:31:17;51.80;;;26.87;;
9304;SDS011;4690;52.422;13.486;2022-12-18T09:33:46;56.53;;;28.57;;
9304;SDS011;4690;52.422;13.486;2022-12-18T09:36:13;47.27;;;25.47;;
9304;SDS011;4690;52.422;13.486;2022-12-18T09:38:42;46.47;;;25.50;;
9304;SDS011;4690;52.422;13.486;2022-12-18T09:44:22;45.50;;;24.50;;
9304;SDS011;4690;52.422;13.486;2022-12-18T09:47:10;46.67;;;24.53;;
9304;SDS011;4690;52.422;13.486;2022-12-18T09:49:56;46.70;;;25.00;;
9304;SDS011;4690;52.422;13.486;2022-12-18T09:52:33;45.30;;;25.30;;
9304;SDS011;4690;52.422;13.486;2022-12-18T09:57:57;46.80;;;25.07;;
9304;SDS011;4690;52.422;13.486;2022-12-18T10:00:36;49.17;;;25.03;;
9304;SDS011;4690;52.422;13.486;2022-12-18T10:03:03;44.40;;;24.90;;
9304;SDS011;4690;52.422;13.486;2022-12-18T10:05:39;50.30;;;25.80;;
9304;SDS011;4690;52.422;13.486;2022-12-18T10:28:15;57.43;;;29.67;;
9304;SDS011;4690;52.422;13.486;2022-12-18T10:30:47;55.83;;;28.20;;
9304;SDS011;4690;52.422;13.486;2022-12-18T10:33:17;51.10;;;28.00;;
9304;SDS011;4690;52.422;13.486;2022-12-18T10:35:46;51.83;;;26.73;;
9304;SDS011;4690;52.422;13.486;2022-12-18T10:38:20;49.10;;;26.63;;
9304;SDS011;4690;52.422;13.486;2022-12-18T10:40:57;52.67;;;27.30;;
9304;SDS011;4690;52.422;13.486;2022-12-18T10:43:31;45.80;;;24.37;;
9304;SDS011;4690;52.422;13.486;2022-12-18T10:51:15;44.87;;;24.47;;
9304;SDS011;4690;52.422;13.486;2022-12-18T10:54:06;42.57;;;25.23;;
9304;SDS011;4690;52.422;13.486;2022-12-18T10:56:47;46.63;;;26.13;;
9304;SDS011;4690;52.422;13.486;2022-12-18T10:59:14;44.17;;;25.23;;
9304;SDS011;4690;52.422;13.486;2022-12-18T11:01:53;43.23;;;26.57;;
9304;SDS011;4690;52.422;13.486;2022-12-18T11:04:32;40.17;;;24.73;;
9304;SDS011;4690;52.422;13.486;2022-12-18T11:07:01;44.70;;;25.77;;
9304;SDS011;4690;52.422;13.486;2022-12-18T11:09:35;42.30;;;25.40;;
9304;SDS011;4690;52.422;13.486;2022-12-18T11:12:19;39.27;;;23.70;;
9304;SDS011;4690;52.422;13.486;2022-12-18T11:14:51;42.20;;;23.00;;
9304;SDS011;4690;52.422;13.486;2022-12-18T11:17:21;44.93;;;24.73;;
9304;SDS011;4690;52.422;13.486;2022-12-18T11:20:00;41.20;;;23.70;;
9304;SDS011;4690;52.422;13.486;2022-12-18T11:22:44;38.33;;;22.97;;
9304;SDS011;4690;52.422;13.486;2022-12-18T11:25:29;45.40;;;26.63;;
9304;SDS011;4690;52.422;13.486;2022-12-18T11:28:03;41.77;;;24.07;;
9304;SDS011;4690;52.422;13.486;2022-12-18T11:31:08;43.63;;;25.97;;
9304;SDS011;4690;52.422;13.486;2022-12-18T11:36:33;45.63;;;24.50;;
9304;SDS011;4690;52.422;13.486;2022-12-18T11:39:09;40.83;;;23.77;;
9304;SDS011;4690;52.422;13.486;2022-12-18T11:42:08;41.07;;;22.87;;
9304;SDS011;4690;52.422;13.486;2022-12-18T11:44:48;41.93;;;23.60;;
9304;SDS011;4690;52.422;13.486;2022-12-18T11:47:45;39.67;;;23.83;;
9304;SDS011;4690;52.422;13.486;2022-12-18T11:50:30;41.23;;;24.20;;
9304;SDS011;4690;52.422;13.486;2022-12-18T11:53:17;37.97;;;21.87;;
9304;SDS011;4690;52.422;13.486;2022-12-18T11:55:49;41.57;;;21.53;;
9304;SDS011;4690;52.422;13.486;2022-12-18T12:01:15;37.53;;;22.60;;
9304;SDS011;4690;52.422;13.486;2022-12-18T12:27:01;33.97;;;21.70;;
9304;SDS011;4690;52.422;13.486;2022-12-18T12:29:46;32.17;;;21.07;;
9304;SDS011;4690;52.422;13.486;2022-12-18T12:32:22;36.77;;;22.87;;
9304;SDS011;4690;52.422;13.486;2022-12-18T12:41:15;35.83;;;22.27;;
9304;SDS011;4690;52.422;13.486;2022-12-18T12:44:07;34.57;;;22.37;;
9304;SDS011;4690;52.422;13.486;2022-12-18T12:46:55;34.07;;;22.23;;
9304;SDS011;4690;52.422;13.486;2022-12-18T12:49:30;33.77;;;21.27;;
9304;SDS011;4690;52.422;13.486;2022-12-18T12:52:00;35.93;;;22.07;;
9304;SDS011;4690;52.422;13.486;2022-12-18T12:54:33;36.90;;;26.77;;
9304;SDS011;4690;52.422;13.486;2022-12-18T13:05:30;33.70;;;24.53;;
9304;SDS011;4690;52.422;13.486;2022-12-18T13:08:12;35.93;;;23.27;;
9304;SDS011;4690;52.422;13.486;2022-12-18T13:11:28;35.50;;;24.37;;
9304;SDS011;4690;52.422;13.486;2022-12-18T13:14:36;36.70;;;24.67;;
9304;SDS011;4690;52.422;13.486;2022-12-18T13:19:52;33.73;;;24.30;;
9304;SDS011;4690;52.422;13.486;2022-12-18T13:22:46;36.10;;;25.90;;
9304;SDS011;4690;52.422;13.486;2022-12-18T13:28:04;36.13;;;25.20;;
9304;SDS011;4690;52.422;13.486;2022-12-18T13:40:56;39.23;;;26.47;;
9304;SDS011;4690;52.422;13.486;2022-12-18T13:43:28;41.53;;;29.13;;
9304;SDS011;4690;52.422;13.486;2022-12-18T13:46:19;43.00;;;28.83;;
9304;SDS011;4690;52.422;13.486;2022-12-18T13:51:40;44.50;;;29.30;;
9304;SDS011;4690;52.422;13.486;2022-12-18T13:57:02;47.10;;;31.20;;
9304;SDS011;4690;52.422;13.486;2022-12-18T13:59:35;46.57;;;30.30;;
9304;SDS011;4690;52.422;13.486;2022-12-18T14:02:13;46.43;;;30.13;;
9304;SDS011;4690;52.422;13.486;2022-12-18T14:04:44;43.77;;;31.13;;
9304;SDS011;4690;52.422;13.486;2022-12-18T14:07:15;44.97;;;29.13;;
9304;SDS011;4690;52.422;13.486;2022-12-18T14:09:46;40.73;;;28.17;;
9304;SDS011;4690;52.422;13.486;2022-12-18T14:20:39;38.63;;;27.63;;
9304;SDS011;4690;52.422;13.486;2022-12-18T14:23:31;34.30;;;24.73;;
9304;SDS011;4690;52.422;13.486;2022-12-18T14:28:58;38.67;;;26.80;;
9304;SDS011;4690;52.422;13.486;2022-12-18T14:31:27;36.23;;;24.73;;
9304;SDS011;4690;52.422;13.486;2022-12-18T14:33:56;32.93;;;24.23;;
9304;SDS011;4690;52.422;13.486;2022-12-18T14:36:26;36.07;;;25.13;;
9304;SDS011;4690;52.422;13.486;2022-12-18T14:38:58;33.47;;;23.87;;
9304;SDS011;4690;52.422;13.486;2022-12-18T14:41:24;30.57;;;22.47;;
9304;SDS011;4690;52.422;13.486;2022-12-18T14:43:51;30.33;;;22.53;;
9304;SDS011;4690;52.422;13.486;2022-12-18T14:46:38;29.00;;;21.57;;
9304;SDS011;4690;52.422;13.486;2022-12-18T14:51:57;30.97;;;21.47;;
9304;SDS011;4690;52.422;13.486;2022-12-18T14:54:31;31.80;;;23.07;;
9304;SDS011;4690;52.422;13.486;2022-12-18T14:57:14;32.43;;;24.00;;
9304;SDS011;4690;52.422;13.486;2022-12-18T14:59:49;31.63;;;22.07;;
9304;SDS011;4690;52.422;13.486;2022-12-18T15:05:05;31.93;;;23.70;;
9304;SDS011;4690;52.422;13.486;2022-12-18T15:07:56;32.40;;;23.53;;
9304;SDS011;4690;52.422;13.486;2022-12-18T15:10:31;32.63;;;23.23;;
9304;SDS011;4690;52.422;13.486;2022-12-18T15:15:43;32.00;;;21.57;;
9304;SDS011;4690;52.422;13.486;2022-12-18T15:18:43;32.27;;;23.53;;
9304;SDS011;4690;52.422;13.486;2022-12-18T15:21:07;25.80;;;19.50;;
9304;SDS011;4690;52.422;13.486;2022-12-18T15:23:49;28.67;;;18.87;;
9304;SDS011;4690;52.422;13.486;2022-12-18T15:26:18;28.80;;;19.97;;
9304;SDS011;4690;52.422;13.486;2022-12-18T15:28:48;30.43;;;21.90;;
9304;SDS011;4690;52.422;13.486;2022-12-18T15:31:24;31.67;;;22.50;;
9304;SDS011;4690;52.422;13.486;2022-12-18T15:36:19;31.03;;;22.43;;
9304;SDS011;4690;52.422;13.486;2022-12-18T15:38:48;27.90;;;21.33;;
9304;SDS011;4690;52.422;13.486;2022-12-18T15:41:17;32.70;;;21.47;;
9304;SDS011;4690;52.422;13.486;2022-12-18T15:43:46;30.37;;;22.37;;
9304;SDS011;4690;52.422;13.486;2022-12-18T15:48:52;29.77;;;21.77;;
9304;SDS011;4690;52.422;13.486;2022-12-18T15:51:22;28.17;;;20.53;;
9304;SDS011;4690;52.422;13.486;2022-12-18T15:54:02;28.07;;;20.40;;
9304;SDS011;4690;52.422;13.486;2022-12-18T15:56:34;29.37;;;19.97;;
9304;SDS011;4690;52.422;13.486;2022-12-18T15:59:19;26.20;;;19.13;;
9304;SDS011;4690;52.422;13.486;2022-12-18T16:01:46;26.53;;;19.53;;
9304;SDS011;4690;52.422;13.486;2022-12-18T16:04:16;24.67;;;17.83;;
9304;SDS011;4690;52.422;13.486;2022-12-18T16:06:45;28.73;;;20.43;;
9304;SDS011;4690;52.422;13.486;2022-12-18T16:09:11;29.40;;;21.77;;
9304;SDS011;4690;52.422;13.486;2022-12-18T16:11:37;26.20;;;20.63;;
9304;SDS011;4690;52.422;13.486;2022-12-18T16:14:18;25.83;;;20.27;;
9304;SDS011;4690;52.422;13.486;2022-12-18T16:16:45;29.23;;;20.57;;
9304;SDS011;4690;52.422;13.486;2022-12-18T16:19:14;26.67;;;19.00;;
9304;SDS011;4690;52.422;13.486;2022-12-18T16:21:41;29.30;;;19.90;;
9304;SDS011;4690;52.422;13.486;2022-12-18T16:24:27;26.80;;;20.20;;
9304;SDS011;4690;52.422;13.486;2022-12-18T16:26:57;29.87;;;21.67;;
9304;SDS011;4690;52.422;13.486;2022-12-18T16:29:25;29.17;;;21.37;;
9304;SDS011;4690;52.422;13.486;2022-12-18T16:31:54;30.90;;;23.67;;
9304;SDS011;4690;52.422;13.486;2022-12-18T16:34:31;32.63;;;22.80;;
9304;SDS011;4690;52.422;13.486;2022-12-18T16:37:05;30.07;;;23.47;;
9304;SDS011;4690;52.422;13.486;2022-12-18T16:39:34;32.77;;;23.67;;
9304;SDS011;4690;52.422;13.486;2022-12-18T16:42:02;40.00;;;30.50;;
9304;SDS011;4690;52.422;13.486;2022-12-18T16:44:35;31.43;;;22.37;;
9304;SDS011;4690;52.422;13.486;2022-12-18T16:47:00;32.10;;;22.03;;
9304;SDS011;4690;52.422;13.486;2022-12-18T16:49:27;31.73;;;22.13;;
9304;SDS011;4690;52.422;13.486;2022-12-18T16:51:53;31.93;;;21.97;;
9304;SDS011;4690;52.422;13.486;2022-12-18T16:54:19;33.73;;;23.57;;
9304;SDS011;4690;52.422;13.486;2022-12-18T16:56:45;31.57;;;21.90;;
9304;SDS011;4690;52.422;13.486;2022-12-18T16:59:13;33.67;;;23.33;;
9304;SDS011;4690;52.422;13.486;2022-12-18T17:01:40;32.27;;;23.33;;
9304;SDS011;4690;52.422;13.486;2022-12-18T17:04:06;33.73;;;23.53;;
9304;SDS011;4690;52.422;13.486;2022-12-18T17:06:33;36.77;;;25.30;;
9304;SDS011;4690;52.422;13.486;2022-12-18T17:09:09;33.00;;;24.00;;
9304;SDS011;4690;52.422;13.486;2022-12-18T17:11:39;34.70;;;24.73;;
9304;SDS011;4690;52.422;13.486;2022-12-18T17:14:06;34.73;;;25.63;;
9304;SDS011;4690;52.422;13.486;2022-12-18T17:16:39;37.53;;;24.70;;
9304;SDS011;4690;52.422;13.486;2022-12-18T17:19:06;35.80;;;24.77;;
9304;SDS011;4690;52.422;13.486;2022-12-18T17:21:31;37.97;;;25.27;;
9304;SDS011;4690;52.422;13.486;2022-12-18T17:24:00;38.10;;;25.73;;
9304;SDS011;4690;52.422;13.486;2022-12-18T17:26:27;37.30;;;26.53;;
9304;SDS011;4690;52.422;13.486;2022-12-18T17:28:56;37.10;;;25.70;;
9304;SDS011;4690;52.422;13.486;2022-12-18T17:31:25;38.90;;;26.03;;